sensor_id;sensor_type;location;lat;lon;timestamp;pressure;altitude;pressure_sealevel;temperature
13410;BMP180;6775;49.574;11.170;2024-03-08T00:00:20;97701.72;;;1.74
13410;BMP180;6775;49.574;11.170;2024-03-08T00:02:49;97703.56;;;1.70
13410;BMP180;6775;49.574;11.170;2024-03-08T00:05:18;97699.44;;;1.68
13410;BMP180;6775;49.574;11.170;2024-03-08T00:07:47;97697.25;;;1.60
13410;BMP180;6775;49.574;11.170;2024-03-08T00:10:17;97702.69;;;1.51
13410;BMP180;6775;49.574;11.170;2024-03-08T00:12:49;97702.03;;;1.47
13410;BMP180;6775;49.574;11.170;2024-03-08T00:15:18;97699.63;;;1.44
13410;BMP180;6775;49.574;11.170;2024-03-08T00:17:47;97692.72;;;1.47
13410;BMP180;6775;49.574;11.170;2024-03-08T00:20:16;97691.09;;;1.46
13410;BMP180;6775;49.574;11.170;2024-03-08T00:22:47;97692.91;;;1.43
13410;BMP180;6775;49.574;11.170;2024-03-08T00:25:16;97691.28;;;1.42
13410;BMP180;6775;49.574;11.170;2024-03-08T00:27:45;97684.56;;;1.41
13410;BMP180;6775;49.574;11.170;2024-03-08T00:30:16;97687.22;;;1.38
13410;BMP180;6775;49.574;11.170;2024-03-08T00:32:45;97677.97;;;1.37
13410;BMP180;6775;49.574;11.170;2024-03-08T00:35:14;97676.22;;;1.39
13410;BMP180;6775;49.574;11.170;2024-03-08T00:37:42;97667.03;;;1.36
13410;BMP180;6775;49.574;11.170;2024-03-08T00:40:14;97674.69;;;1.35
13410;BMP180;6775;49.574;11.170;2024-03-08T00:42:44;97669.75;;;1.32
13410;BMP180;6775;49.574;11.170;2024-03-08T00:45:12;97671.50;;;1.30
13410;BMP180;6775;49.574;11.170;2024-03-08T00:47:41;97678.34;;;1.28
13410;BMP180;6775;49.574;11.170;2024-03-08T00:50:11;97681.75;;;1.27
13410;BMP180;6775;49.574;11.170;2024-03-08T00:52:41;97670.75;;;1.28
13410;BMP180;6775;49.574;11.170;2024-03-08T00:55:09;97674.94;;;1.29
13410;BMP180;6775;49.574;11.170;2024-03-08T00:57:38;97669.88;;;1.29
13410;BMP180;6775;49.574;11.170;2024-03-08T01:00:10;97667.47;;;1.26
13410;BMP180;6775;49.574;11.170;2024-03-08T01:02:40;97668.16;;;1.29
13410;BMP180;6775;49.574;11.170;2024-03-08T01:05:08;97662.03;;;1.35
13410;BMP180;6775;49.574;11.170;2024-03-08T01:07:37;97655.84;;;1.42
13410;BMP180;6775;49.574;11.170;2024-03-08T01:10:07;97648.84;;;1.47
13410;BMP180;6775;49.574;11.170;2024-03-08T01:12:37;97652.09;;;1.50
13410;BMP180;6775;49.574;11.170;2024-03-08T01:15:09;97641.00;;;1.52
13410;BMP180;6775;49.574;11.170;2024-03-08T01:17:38;97645.19;;;1.53
13410;BMP180;6775;49.574;11.170;2024-03-08T01:20:08;97636.63;;;1.56
13410;BMP180;6775;49.574;11.170;2024-03-08T01:22:40;97643.41;;;1.55
13410;BMP180;6775;49.574;11.170;2024-03-08T01:25:09;97643.41;;;1.55
13410;BMP180;6775;49.574;11.170;2024-03-08T01:27:37;97636.63;;;1.56
13410;BMP180;6775;49.574;11.170;2024-03-08T01:30:08;97637.50;;;1.55
13410;BMP180;6775;49.574;11.170;2024-03-08T01:32:37;97632.53;;;1.53
13410;BMP180;6775;49.574;11.170;2024-03-08T01:35:07;97635.78;;;1.55
13410;BMP180;6775;49.574;11.170;2024-03-08T01:37:37;97628.31;;;1.52
13410;BMP180;6775;49.574;11.170;2024-03-08T01:40:07;97621.63;;;1.51
13410;BMP180;6775;49.574;11.170;2024-03-08T01:42:36;97619.97;;;1.50
13410;BMP180;6775;49.574;11.170;2024-03-08T01:45:08;97616.75;;;1.47
13410;BMP180;6775;49.574;11.170;2024-03-08T01:47:37;97608.47;;;1.44
13410;BMP180;6775;49.574;11.170;2024-03-08T01:50:07;97613.59;;;1.42
13410;BMP180;6775;49.574;11.170;2024-03-08T01:52:37;97609.47;;;1.40
13410;BMP180;6775;49.574;11.170;2024-03-08T01:55:06;97607.06;;;1.37
13410;BMP180;6775;49.574;11.170;2024-03-08T01:57:35;97596.25;;;1.33
13410;BMP180;6775;49.574;11.170;2024-03-08T02:00:08;97600.75;;;1.27
13410;BMP180;6775;49.574;11.170;2024-03-08T02:02:42;97590.25;;;1.16
13410;BMP180;6775;49.574;11.170;2024-03-08T02:05:11;97586.38;;;1.07
13410;BMP180;6775;49.574;11.170;2024-03-08T02:07:41;97595.19;;;0.99
13410;BMP180;6775;49.574;11.170;2024-03-08T02:10:11;97580.94;;;0.97
13410;BMP180;6775;49.574;11.170;2024-03-08T02:12:40;97581.88;;;0.94
13410;BMP180;6775;49.574;11.170;2024-03-08T02:15:10;97588.84;;;0.89
13410;BMP180;6775;49.574;11.170;2024-03-08T02:17:38;97585.66;;;0.84
13410;BMP180;6775;49.574;11.170;2024-03-08T02:20:08;97585.09;;;0.78
13410;BMP180;6775;49.574;11.170;2024-03-08T02:22:42;97581.88;;;0.74
13410;BMP180;6775;49.574;11.170;2024-03-08T02:25:11;97574.31;;;0.73
13410;BMP180;6775;49.574;11.170;2024-03-08T02:27:39;97575.91;;;0.75
13410;BMP180;6775;49.574;11.170;2024-03-08T02:30:10;97569.09;;;0.77
13410;BMP180;6775;49.574;11.170;2024-03-08T02:32:40;97562.13;;;0.82
13410;BMP180;6775;49.574;11.170;2024-03-08T02:35:08;97560.13;;;0.90
13410;BMP180;6775;49.574;11.170;2024-03-08T02:37:37;97562.47;;;0.95
13410;BMP180;6775;49.574;11.170;2024-03-08T02:40:09;97564.94;;;0.96
13410;BMP180;6775;49.574;11.170;2024-03-08T02:42:39;97559.88;;;0.96
13410;BMP180;6775;49.574;11.170;2024-03-08T02:45:08;97561.63;;;0.94
13410;BMP180;6775;49.574;11.170;2024-03-08T02:47:37;97559.22;;;0.91
13410;BMP180;6775;49.574;11.170;2024-03-08T02:50:07;97554.09;;;0.93
13410;BMP180;6775;49.574;11.170;2024-03-08T02:52:36;97554.09;;;0.93
13410;BMP180;6775;49.574;11.170;2024-03-08T02:55:07;97553.22;;;0.94
13410;BMP180;6775;49.574;11.170;2024-03-08T02:57:40;97546.56;;;0.91
13410;BMP180;6775;49.574;11.170;2024-03-08T03:00:09;97550.00;;;0.90
13410;BMP180;6775;49.574;11.170;2024-03-08T03:02:38;97559.41;;;0.87
13410;BMP180;6775;49.574;11.170;2024-03-08T03:05:07;97546.22;;;0.80
13410;BMP180;6775;49.574;11.170;2024-03-08T03:07:36;97547.97;;;0.78
13410;BMP180;6775;49.574;11.170;2024-03-08T03:10:08;97542.78;;;0.81
13410;BMP180;6775;49.574;11.170;2024-03-08T03:12:36;97541.75;;;0.85
13410;BMP180;6775;49.574;11.170;2024-03-08T03:15:06;97530.78;;;0.86
13410;BMP180;6775;49.574;11.170;2024-03-08T03:17:35;97534.97;;;0.87
13410;BMP180;6775;49.574;11.170;2024-03-08T03:20:06;97532.38;;;0.89
13410;BMP180;6775;49.574;11.170;2024-03-08T03:22:41;97533.31;;;0.86
13410;BMP180;6775;49.574;11.170;2024-03-08T03:25:13;97526.72;;;0.82
13410;BMP180;6775;49.574;11.170;2024-03-08T03:27:42;97525.19;;;0.78
13410;BMP180;6775;49.574;11.170;2024-03-08T03:30:13;97537.09;;;0.76
13410;BMP180;6775;49.574;11.170;2024-03-08T03:32:49;97529.63;;;0.73
13410;BMP180;6775;49.574;11.170;2024-03-08T03:35:19;97532.28;;;0.70
13410;BMP180;6775;49.574;11.170;2024-03-08T03:37:48;97535.00;;;0.66
13410;BMP180;6775;49.574;11.170;2024-03-08T03:40:30;97535.22;;;0.60
13410;BMP180;6775;49.574;11.170;2024-03-08T03:42:58;97534.53;;;0.56
13410;BMP180;6775;49.574;11.170;2024-03-08T03:45:27;97541.38;;;0.54
13410;BMP180;6775;49.574;11.170;2024-03-08T03:47:56;97536.50;;;0.50
13410;BMP180;6775;49.574;11.170;2024-03-08T03:50:27;97529.00;;;0.47
13410;BMP180;6775;49.574;11.170;2024-03-08T03:52:56;97540.84;;;0.47
13410;BMP180;6775;49.574;11.170;2024-03-08T03:55:25;97530.09;;;0.42
13410;BMP180;6775;49.574;11.170;2024-03-08T03:57:55;97531.84;;;0.40
13410;BMP180;6775;49.574;11.170;2024-03-08T04:00:26;97536.91;;;0.40
13410;BMP180;6775;49.574;11.170;2024-03-08T04:02:55;97533.63;;;0.38
13410;BMP180;6775;49.574;11.170;2024-03-08T04:05:26;97536.28;;;0.35
13410;BMP180;6775;49.574;11.170;2024-03-08T04:07:55;97527.97;;;0.31
13410;BMP180;6775;49.574;11.170;2024-03-08T04:10:23;97533.16;;;0.28
13410;BMP180;6775;49.574;11.170;2024-03-08T04:12:52;97529.06;;;0.26
13410;BMP180;6775;49.574;11.170;2024-03-08T04:15:22;97531.56;;;0.26
13410;BMP180;6775;49.574;11.170;2024-03-08T04:17:50;97526.22;;;0.33
13410;BMP180;6775;49.574;11.170;2024-03-08T04:20:20;97525.25;;;0.36
13410;BMP180;6775;49.574;11.170;2024-03-08T04:22:49;97531.22;;;0.35
13410;BMP180;6775;49.574;11.170;2024-03-08T04:25:17;97525.84;;;0.42
13410;BMP180;6775;49.574;11.170;2024-03-08T04:27:47;97516.31;;;0.48
13410;BMP180;6775;49.574;11.170;2024-03-08T04:30:16;97521.13;;;0.54
13410;BMP180;6775;49.574;11.170;2024-03-08T04:32:46;97511.66;;;0.59
13410;BMP180;6775;49.574;11.170;2024-03-08T04:35:16;97521.63;;;0.62
13410;BMP180;6775;49.574;11.170;2024-03-08T04:37:44;97509.72;;;0.66
13410;BMP180;6775;49.574;11.170;2024-03-08T04:40:13;97506.22;;;0.68
13410;BMP180;6775;49.574;11.170;2024-03-08T04:42:43;97503.69;;;0.68
13410;BMP180;6775;49.574;11.170;2024-03-08T04:45:12;97494.41;;;0.69
13410;BMP180;6775;49.574;11.170;2024-03-08T04:47:41;97501.03;;;0.71
13410;BMP180;6775;49.574;11.170;2024-03-08T04:50:11;97504.41;;;0.72
13410;BMP180;6775;49.574;11.170;2024-03-08T04:52:39;97500.97;;;0.73
13410;BMP180;6775;49.574;11.170;2024-03-08T04:55:08;97496.88;;;0.70
13410;BMP180;6775;49.574;11.170;2024-03-08T04:57:37;97498.63;;;0.68
13410;BMP180;6775;49.574;11.170;2024-03-08T05:00:07;97505.34;;;0.69
13410;BMP180;6775;49.574;11.170;2024-03-08T05:02:38;97501.28;;;0.65
13410;BMP180;6775;49.574;11.170;2024-03-08T05:05:07;97508.25;;;0.60
13410;BMP180;6775;49.574;11.170;2024-03-08T05:07:40;97509.13;;;0.59
13410;BMP180;6775;49.574;11.170;2024-03-08T05:10:10;97504.19;;;0.56
13410;BMP180;6775;49.574;11.170;2024-03-08T05:12:39;97494.19;;;0.53
13410;BMP180;6775;49.574;11.170;2024-03-08T05:15:08;97498.38;;;0.54
13410;BMP180;6775;49.574;11.170;2024-03-08T05:17:37;97496.66;;;0.55
13410;BMP180;6775;49.574;11.170;2024-03-08T05:20:08;97489.28;;;0.50
13410;BMP180;6775;49.574;11.170;2024-03-08T05:22:41;97482.75;;;0.45
13410;BMP180;6775;49.574;11.170;2024-03-08T05:25:09;97494.81;;;0.39
13410;BMP180;6775;49.574;11.170;2024-03-08T05:27:39;97501.13;;;0.29
13410;BMP180;6775;49.574;11.170;2024-03-08T05:30:08;97487.19;;;0.19
13410;BMP180;6775;49.574;11.170;2024-03-08T05:32:42;97479.09;;;0.11
13410;BMP180;6775;49.574;11.170;2024-03-08T05:35:11;97478.56;;;0.03
13410;BMP180;6775;49.574;11.170;2024-03-08T05:37:44;97482.09;;;-0.01
13410;BMP180;6775;49.574;11.170;2024-03-08T05:40:13;97480.44;;;-0.02
13410;BMP180;6775;49.574;11.170;2024-03-08T05:42:45;97475.38;;;-0.02
13410;BMP180;6775;49.574;11.170;2024-03-08T05:45:13;97479.69;;;-0.04
13410;BMP180;6775;49.574;11.170;2024-03-08T05:47:42;97477.78;;;0.01
13410;BMP180;6775;49.574;11.170;2024-03-08T05:50:11;97474.91;;;0.10
13410;BMP180;6775;49.574;11.170;2024-03-08T05:52:39;97475.31;;;0.21
13410;BMP180;6775;49.574;11.170;2024-03-08T05:55:09;97466.63;;;0.28
13410;BMP180;6775;49.574;11.170;2024-03-08T05:57:41;97471.28;;;0.37
13410;BMP180;6775;49.574;11.170;2024-03-08T06:00:11;97458.47;;;0.41
13410;BMP180;6775;49.574;11.170;2024-03-08T06:02:39;97454.00;;;0.48
13410;BMP180;6775;49.574;11.170;2024-03-08T06:05:10;97459.69;;;0.52
13410;BMP180;6775;49.574;11.170;2024-03-08T06:07:38;97457.72;;;0.59
13410;BMP180;6775;49.574;11.170;2024-03-08T06:10:10;97461.59;;;0.67
13410;BMP180;6775;49.574;11.170;2024-03-08T06:12:40;97454.63;;;0.72
13410;BMP180;6775;49.574;11.170;2024-03-08T06:15:10;97455.34;;;0.76
13410;BMP180;6775;49.574;11.170;2024-03-08T06:17:42;97451.81;;;0.78
13410;BMP180;6775;49.574;11.170;2024-03-08T06:20:11;97460.00;;;0.85
13410;BMP180;6775;49.574;11.170;2024-03-08T06:22:40;97456.53;;;0.87
13410;BMP180;6775;49.574;11.170;2024-03-08T06:25:10;97457.22;;;0.91
13410;BMP180;6775;49.574;11.170;2024-03-08T06:27:41;97458.66;;;0.96
13410;BMP180;6775;49.574;11.170;2024-03-08T06:30:11;97460.03;;;1.03
13410;BMP180;6775;49.574;11.170;2024-03-08T06:32:39;97458.13;;;1.08
13410;BMP180;6775;49.574;11.170;2024-03-08T06:35:10;97455.97;;;1.19
13410;BMP180;6775;49.574;11.170;2024-03-08T06:37:38;97461.50;;;1.27
13410;BMP180;6775;49.574;11.170;2024-03-08T06:40:10;97447.69;;;1.34
13410;BMP180;6775;49.574;11.170;2024-03-08T06:42:41;97451.31;;;1.47
13410;BMP180;6775;49.574;11.170;2024-03-08T06:45:10;97455.72;;;1.61
13410;BMP180;6775;49.574;11.170;2024-03-08T06:47:40;97451.84;;;1.71
13410;BMP180;6775;49.574;11.170;2024-03-08T06:50:10;97449.00;;;1.79
13410;BMP180;6775;49.574;11.170;2024-03-08T06:52:39;97452.66;;;1.90
13410;BMP180;6775;49.574;11.170;2024-03-08T06:55:10;97450.44;;;2.01
13410;BMP180;6775;49.574;11.170;2024-03-08T06:57:39;97440.56;;;2.13
13410;BMP180;6775;49.574;11.170;2024-03-08T07:00:10;97447.50;;;2.27
13410;BMP180;6775;49.574;11.170;2024-03-08T07:02:41;97441.78;;;2.40
13410;BMP180;6775;49.574;11.170;2024-03-08T07:05:09;97446.97;;;2.54
13410;BMP180;6775;49.574;11.170;2024-03-08T07:07:38;97431.97;;;2.66
13410;BMP180;6775;49.574;11.170;2024-03-08T07:10:10;97439.66;;;2.82
13410;BMP180;6775;49.574;11.170;2024-03-08T07:12:41;97434.78;;;2.94
13410;BMP180;6775;49.574;11.170;2024-03-08T07:15:10;97430.88;;;3.04
13410;BMP180;6775;49.574;11.170;2024-03-08T07:17:42;97426.88;;;3.15
13410;BMP180;6775;49.574;11.170;2024-03-08T07:20:12;97426.13;;;3.30
13410;BMP180;6775;49.574;11.170;2024-03-08T07:22:42;97428.72;;;3.44
13410;BMP180;6775;49.574;11.170;2024-03-08T07:25:16;97427.84;;;3.60
13410;BMP180;6775;49.574;11.170;2024-03-08T07:27:49;97429.91;;;3.69
13410;BMP180;6775;49.574;11.170;2024-03-08T07:30:19;97423.25;;;3.82
13410;BMP180;6775;49.574;11.170;2024-03-08T07:33:06;97414.81;;;3.97
13410;BMP180;6775;49.574;11.170;2024-03-08T07:35:35;97416.41;;;4.13
13410;BMP180;6775;49.574;11.170;2024-03-08T07:38:04;97413.84;;;4.29
13410;BMP180;6775;49.574;11.170;2024-03-08T07:40:37;97408.06;;;4.41
13410;BMP180;6775;49.574;11.170;2024-03-08T07:43:07;97414.66;;;4.58
13410;BMP180;6775;49.574;11.170;2024-03-08T07:45:36;97411.22;;;4.73
13410;BMP180;6775;49.574;11.170;2024-03-08T07:48:06;97407.41;;;4.94
13410;BMP180;6775;49.574;11.170;2024-03-08T07:50:37;97405.81;;;5.07
13410;BMP180;6775;49.574;11.170;2024-03-08T07:53:06;97398.88;;;5.23
13410;BMP180;6775;49.574;11.170;2024-03-08T07:55:36;97396.84;;;5.42
13410;BMP180;6775;49.574;11.170;2024-03-08T07:58:06;97391.56;;;5.58
13410;BMP180;6775;49.574;11.170;2024-03-08T08:00:37;97396.09;;;5.67
13410;BMP180;6775;49.574;11.170;2024-03-08T08:03:06;97390.34;;;5.78
13410;BMP180;6775;49.574;11.170;2024-03-08T08:05:35;97393.44;;;5.83
13410;BMP180;6775;49.574;11.170;2024-03-08T08:08:07;97388.38;;;5.95
13410;BMP180;6775;49.574;11.170;2024-03-08T08:10:39;97377.78;;;6.01
13410;BMP180;6775;49.574;11.170;2024-03-08T08:13:07;97373.22;;;6.06
13410;BMP180;6775;49.574;11.170;2024-03-08T08:15:36;97380.47;;;6.12
13410;BMP180;6775;49.574;11.170;2024-03-08T08:18:05;97374.25;;;6.16
13410;BMP180;6775;49.574;11.170;2024-03-08T08:20:35;97371.50;;;6.19
13410;BMP180;6775;49.574;11.170;2024-03-08T08:23:04;97367.75;;;6.37
13410;BMP180;6775;49.574;11.170;2024-03-08T08:25:33;97373.00;;;6.48
13410;BMP180;6775;49.574;11.170;2024-03-08T08:28:04;97360.34;;;6.71
13410;BMP180;6775;49.574;11.170;2024-03-08T08:30:32;97358.13;;;6.79
13410;BMP180;6775;49.574;11.170;2024-03-08T08:33:01;97359.41;;;6.97
13410;BMP180;6775;49.574;11.170;2024-03-08T08:35:30;97358.16;;;7.27
13410;BMP180;6775;49.574;11.170;2024-03-08T08:38:00;97343.44;;;8.36
13410;BMP180;6775;49.574;11.170;2024-03-08T08:40:31;97334.19;;;12.15
13410;BMP180;6775;49.574;11.170;2024-03-08T08:43:00;97324.81;;;14.91
13410;BMP180;6775;49.574;11.170;2024-03-08T08:45:31;97319.13;;;17.76
13410;BMP180;6775;49.574;11.170;2024-03-08T08:48:00;97324.00;;;19.27
13410;BMP180;6775;49.574;11.170;2024-03-08T08:50:28;97319.34;;;19.51
13410;BMP180;6775;49.574;11.170;2024-03-08T08:52:58;97322.69;;;20.30
13410;BMP180;6775;49.574;11.170;2024-03-08T08:55:26;97326.06;;;18.80
13410;BMP180;6775;49.574;11.170;2024-03-08T08:57:56;97317.28;;;18.96
13410;BMP180;6775;49.574;11.170;2024-03-08T09:00:24;97305.94;;;19.11
13410;BMP180;6775;49.574;11.170;2024-03-08T09:02:56;97299.09;;;18.37
13410;BMP180;6775;49.574;11.170;2024-03-08T09:05:26;97307.72;;;16.61
13410;BMP180;6775;49.574;11.170;2024-03-08T09:07:55;97309.16;;;16.87
13410;BMP180;6775;49.574;11.170;2024-03-08T09:10:23;97297.09;;;18.47
13410;BMP180;6775;49.574;11.170;2024-03-08T09:12:55;97292.56;;;19.14
13410;BMP180;6775;49.574;11.170;2024-03-08T09:15:23;97291.09;;;18.61
13410;BMP180;6775;49.574;11.170;2024-03-08T09:17:56;97286.09;;;19.10
13410;BMP180;6775;49.574;11.170;2024-03-08T09:20:24;97278.88;;;18.47
13410;BMP180;6775;49.574;11.170;2024-03-08T09:22:53;97283.22;;;18.69
13410;BMP180;6775;49.574;11.170;2024-03-08T09:25:22;97285.13;;;18.74
13410;BMP180;6775;49.574;11.170;2024-03-08T09:27:51;97270.50;;;19.02
13410;BMP180;6775;49.574;11.170;2024-03-08T09:30:19;97276.16;;;18.77
13410;BMP180;6775;49.574;11.170;2024-03-08T09:32:48;97265.91;;;18.39
13410;BMP180;6775;49.574;11.170;2024-03-08T09:35:20;97273.13;;;18.07
13410;BMP180;6775;49.574;11.170;2024-03-08T09:37:48;97264.91;;;16.73
13410;BMP180;6775;49.574;11.170;2024-03-08T09:40:19;97258.31;;;17.55
13410;BMP180;6775;49.574;11.170;2024-03-08T09:42:49;97252.00;;;18.46
13410;BMP180;6775;49.574;11.170;2024-03-08T09:45:20;97246.75;;;18.54
13410;BMP180;6775;49.574;11.170;2024-03-08T09:47:49;97259.41;;;16.36
13410;BMP180;6775;49.574;11.170;2024-03-08T09:50:19;97272.19;;;14.15
13410;BMP180;6775;49.574;11.170;2024-03-08T09:52:49;97256.38;;;13.83
13410;BMP180;6775;49.574;11.170;2024-03-08T09:55:18;97263.13;;;12.96
13410;BMP180;6775;49.574;11.170;2024-03-08T09:57:53;97252.34;;;13.37
13410;BMP180;6775;49.574;11.170;2024-03-08T10:00:36;97254.72;;;12.94
13410;BMP180;6775;49.574;11.170;2024-03-08T10:03:05;97253.47;;;13.52
13410;BMP180;6775;49.574;11.170;2024-03-08T10:05:34;97252.06;;;13.40
13410;BMP180;6775;49.574;11.170;2024-03-08T10:08:05;97265.09;;;12.57
13410;BMP180;6775;49.574;11.170;2024-03-08T10:10:34;97256.09;;;11.96
13410;BMP180;6775;49.574;11.170;2024-03-08T10:13:05;97261.91;;;11.79
13410;BMP180;6775;49.574;11.170;2024-03-08T10:15:33;97246.13;;;11.45
13410;BMP180;6775;49.574;11.170;2024-03-08T10:18:02;97233.19;;;11.56
13410;BMP180;6775;49.574;11.170;2024-03-08T10:20:31;97229.38;;;12.16
13410;BMP180;6775;49.574;11.170;2024-03-08T10:23:03;97229.06;;;12.38
13410;BMP180;6775;49.574;11.170;2024-03-08T10:25:38;97227.28;;;12.48
13410;BMP180;6775;49.574;11.170;2024-03-08T10:28:07;97225.16;;;12.24
13410;BMP180;6775;49.574;11.170;2024-03-08T10:30:35;97238.91;;;11.87
13410;BMP180;6775;49.574;11.170;2024-03-08T10:33:05;97226.28;;;11.65
13410;BMP180;6775;49.574;11.170;2024-03-08T10:35:34;97211.78;;;11.83
13410;BMP180;6775;49.574;11.170;2024-03-08T10:38:07;97222.88;;;12.12
13410;BMP180;6775;49.574;11.170;2024-03-08T10:40:39;97207.72;;;12.00
13410;BMP180;6775;49.574;11.170;2024-03-08T10:43:23;97206.84;;;12.37
13410;BMP180;6775;49.574;11.170;2024-03-08T10:46:08;97214.16;;;12.32
13410;BMP180;6775;49.574;11.170;2024-03-08T10:48:44;97198.13;;;12.38
13410;BMP180;6775;49.574;11.170;2024-03-08T10:51:15;97199.50;;;12.42
13410;BMP180;6775;49.574;11.170;2024-03-08T10:53:47;97200.09;;;12.17
13410;BMP180;6775;49.574;11.170;2024-03-08T10:56:18;97202.00;;;12.15
13410;BMP180;6775;49.574;11.170;2024-03-08T10:58:47;97198.25;;;12.46
13410;BMP180;6775;49.574;11.170;2024-03-08T11:01:16;97196.19;;;12.58
13410;BMP180;6775;49.574;11.170;2024-03-08T11:03:46;97192.72;;;12.77
13410;BMP180;6775;49.574;11.170;2024-03-08T11:06:18;97191.22;;;12.84
13410;BMP180;6775;49.574;11.170;2024-03-08T11:08:51;97188.13;;;13.07
13410;BMP180;6775;49.574;11.170;2024-03-08T11:11:28;97184.16;;;12.76
13410;BMP180;6775;49.574;11.170;2024-03-08T11:14:01;97183.72;;;12.54
13410;BMP180;6775;49.574;11.170;2024-03-08T11:16:39;97176.78;;;12.55
13410;BMP180;6775;49.574;11.170;2024-03-08T11:19:26;97185.38;;;12.46
13410;BMP180;6775;49.574;11.170;2024-03-08T11:22:03;97164.97;;;12.61
13410;BMP180;6775;49.574;11.170;2024-03-08T11:24:40;97161.47;;;12.53
13410;BMP180;6775;49.574;11.170;2024-03-08T11:27:09;97157.31;;;12.69
13410;BMP180;6775;49.574;11.170;2024-03-08T11:29:39;97147.03;;;12.96
13410;BMP180;6775;49.574;11.170;2024-03-08T11:32:09;97148.44;;;12.91
13410;BMP180;6775;49.574;11.170;2024-03-08T11:34:41;97138.88;;;12.74
13410;BMP180;6775;49.574;11.170;2024-03-08T11:37:13;97134.13;;;13.23
13410;BMP180;6775;49.574;11.170;2024-03-08T11:39:49;97129.78;;;13.83
13410;BMP180;6775;49.574;11.170;2024-03-08T11:42:19;97117.84;;;14.25
13410;BMP180;6775;49.574;11.170;2024-03-08T11:44:50;97119.50;;;14.34
13410;BMP180;6775;49.574;11.170;2024-03-08T11:47:20;97114.06;;;14.45
13410;BMP180;6775;49.574;11.170;2024-03-08T11:49:49;97116.63;;;14.37
13410;BMP180;6775;49.574;11.170;2024-03-08T11:52:18;97105.44;;;14.28
13410;BMP180;6775;49.574;11.170;2024-03-08T11:54:54;97104.16;;;14.07
13410;BMP180;6775;49.574;11.170;2024-03-08T11:57:26;97099.78;;;14.33
13410;BMP180;6775;49.574;11.170;2024-03-08T11:59:56;97096.59;;;14.47
13410;BMP180;6775;49.574;11.170;2024-03-08T12:02:25;97086.25;;;14.47
13410;BMP180;6775;49.574;11.170;2024-03-08T12:05:01;97084.28;;;14.33
13410;BMP180;6775;49.574;11.170;2024-03-08T12:07:30;97074.75;;;14.33
13410;BMP180;6775;49.574;11.170;2024-03-08T12:10:21;97070.03;;;14.29
13410;BMP180;6775;49.574;11.170;2024-03-08T12:12:53;97069.13;;;13.87
13410;BMP180;6775;49.574;11.170;2024-03-08T12:15:24;97056.91;;;13.97
13410;BMP180;6775;49.574;11.170;2024-03-08T12:17:54;97051.66;;;14.07
13410;BMP180;6775;49.574;11.170;2024-03-08T12:20:26;97044.72;;;14.40
13410;BMP180;6775;49.574;11.170;2024-03-08T12:22:57;97046.25;;;14.59
13410;BMP180;6775;49.574;11.170;2024-03-08T12:25:31;97049.34;;;14.70
13410;BMP180;6775;49.574;11.170;2024-03-08T12:28:09;97034.69;;;14.86
13410;BMP180;6775;49.574;11.170;2024-03-08T12:30:47;97042.44;;;14.86
13410;BMP180;6775;49.574;11.170;2024-03-08T12:33:16;97048.22;;;14.64
13410;BMP180;6775;49.574;11.170;2024-03-08T12:35:52;97042.53;;;14.20
13410;BMP180;6775;49.574;11.170;2024-03-08T12:38:28;97041.13;;;14.00
13410;BMP180;6775;49.574;11.170;2024-03-08T12:41:00;97036.63;;;13.77
13410;BMP180;6775;49.574;11.170;2024-03-08T12:43:30;97031.72;;;13.91
13410;BMP180;6775;49.574;11.170;2024-03-08T12:45:59;97029.94;;;14.17
13410;BMP180;6775;49.574;11.170;2024-03-08T12:48:28;97021.56;;;14.31
13410;BMP180;6775;49.574;11.170;2024-03-08T12:50:56;97017.56;;;14.36
13410;BMP180;6775;49.574;11.170;2024-03-08T12:53:25;97015.97;;;14.35
13410;BMP180;6775;49.574;11.170;2024-03-08T12:55:55;97019.56;;;14.50
13410;BMP180;6775;49.574;11.170;2024-03-08T12:58:26;97002.97;;;14.76
13410;BMP180;6775;49.574;11.170;2024-03-08T13:00:54;96997.81;;;14.92
13410;BMP180;6775;49.574;11.170;2024-03-08T13:03:23;96995.53;;;14.73
13410;BMP180;6775;49.574;11.170;2024-03-08T13:05:52;96988.00;;;14.47
13410;BMP180;6775;49.574;11.170;2024-03-08T13:08:20;96987.84;;;14.40
13410;BMP180;6775;49.574;11.170;2024-03-08T13:10:51;96994.13;;;14.38
13410;BMP180;6775;49.574;11.170;2024-03-08T13:13:21;96989.34;;;14.51
13410;BMP180;6775;49.574;11.170;2024-03-08T13:15:51;96980.50;;;14.61
13410;BMP180;6775;49.574;11.170;2024-03-08T13:18:20;96975.78;;;14.64
13410;BMP180;6775;49.574;11.170;2024-03-08T13:20:48;96972.91;;;14.75
13410;BMP180;6775;49.574;11.170;2024-03-08T13:23:19;96969.00;;;14.63
13410;BMP180;6775;49.574;11.170;2024-03-08T13:25:47;96969.03;;;14.95
13410;BMP180;6775;49.574;11.170;2024-03-08T13:28:16;96966.94;;;15.07
13410;BMP180;6775;49.574;11.170;2024-03-08T13:30:51;96971.97;;;15.16
13410;BMP180;6775;49.574;11.170;2024-03-08T13:33:26;96967.09;;;14.81
13410;BMP180;6775;49.574;11.170;2024-03-08T13:35:54;96961.59;;;14.68
13410;BMP180;6775;49.574;11.170;2024-03-08T13:38:31;96955.25;;;14.71
13410;BMP180;6775;49.574;11.170;2024-03-08T13:41:00;96952.06;;;14.93
13410;BMP180;6775;49.574;11.170;2024-03-08T13:43:30;96947.38;;;15.04
13410;BMP180;6775;49.574;11.170;2024-03-08T13:46:03;96955.13;;;15.12
13410;BMP180;6775;49.574;11.170;2024-03-08T13:48:32;96953.69;;;15.17
13410;BMP180;6775;49.574;11.170;2024-03-08T13:51:01;96943.47;;;14.92
13410;BMP180;6775;49.574;11.170;2024-03-08T13:53:29;96947.72;;;14.85
13410;BMP180;6775;49.574;11.170;2024-03-08T13:55:58;96944.47;;;15.07
13410;BMP180;6775;49.574;11.170;2024-03-08T13:58:27;96943.19;;;15.27
13410;BMP180;6775;49.574;11.170;2024-03-08T14:00:56;96929.22;;;15.60
13410;BMP180;6775;49.574;11.170;2024-03-08T14:03:24;96930.84;;;15.45
13410;BMP180;6775;49.574;11.170;2024-03-08T14:05:53;96929.75;;;15.31
13410;BMP180;6775;49.574;11.170;2024-03-08T14:08:22;96929.41;;;14.95
13410;BMP180;6775;49.574;11.170;2024-03-08T14:10:51;96928.28;;;14.73
13410;BMP180;6775;49.574;11.170;2024-03-08T14:13:21;96923.41;;;14.55
13410;BMP180;6775;49.574;11.170;2024-03-08T14:15:50;96912.41;;;14.37
13410;BMP180;6775;49.574;11.170;2024-03-08T14:18:20;96909.47;;;14.24
13410;BMP180;6775;49.574;11.170;2024-03-08T14:20:49;96893.66;;;14.43
13410;BMP180;6775;49.574;11.170;2024-03-08T14:23:18;96907.25;;;14.61
13410;BMP180;6775;49.574;11.170;2024-03-08T14:25:49;96894.31;;;14.61
13410;BMP180;6775;49.574;11.170;2024-03-08T14:28:19;96884.97;;;14.75
13410;BMP180;6775;49.574;11.170;2024-03-08T14:30:48;96876.53;;;14.73
13410;BMP180;6775;49.574;11.170;2024-03-08T14:33:17;96885.44;;;14.63